Date,TemperatureHighF,TemperatureAvgF,TemperatureLowF,DewpointHighF,DewpointAvgF,DewpointLowF,HumidityHigh,HumidityAvg,HumidityLow,PressureMaxIn,PressureMinIn,WindSpeedMaxMPH,WindSpeedAvgMPH,GustSpeedMaxMPH,PrecipitationSumIn
2013-6-24,79.4,79.2,79.0,60.0,60.0,60.0,52,52,52,29.80,29.79,0,0,17,0.00
2013-6-25,89.0,73.2,67.5,76.0,56.5,-99.9,93,73,61,29.96,0.00,30,-42,37,0.28
2013-6-26,83.5,75.5,67.1,76.0,71.2,64.0,96,87,74,29.85,29.69,18,6,21,0.03
2013-6-27,88.8,79.1,72.1,76.0,72.1,67.0,99,81,50,29.79,29.70,23,9,25,0.00
2013-6-28,83.4,74.3,67.2,68.0,64.2,57.0,92,74,41,29.74,29.60,22,10,34,0.14
2013-6-29,75.3,66.9,63.7,68.0,64.1,62.0,95,90,73,29.70,29.58,13,6,22,0.31
2013-6-30,75.7,68.0,62.2,65.0,62.0,56.0,96,82,61,29.90,29.70,24,11,30,0.00
2013-7-1,77.8,68.3,62.3,63.0,58.9,54.0,87,73,60,29.98,29.89,19,10,30,0.00
2013-7-2,69.4,64.0,61.1,63.0,59.3,56.0,95,85,77,30.02,29.95,18,8,20,0.02
2013-7-3,75.7,65.6,60.3,66.0,62.5,59.0,99,90,67,30.07,29.99,7,3,11,0.07
2013-7-4,81.1,69.8,57.5,66.0,61.1,57.0,98,76,52,30.11,30.03,9,3,15,0.00
2013-7-5,84.5,72.1,61.6,70.0,65.4,60.0,99,81,54,30.09,30.00,9,2,12,0.00
2013-7-6,78.9,71.2,65.5,71.0,68.5,64.0,98,91,71,30.05,29.98,9,2,10,0.00
2013-7-7,87.7,74.9,62.4,74.0,68.6,62.0,99,82,58,30.04,29.95,10,4,17,0.00
2013-7-8,87.3,76.4,70.1,76.0,72.1,68.0,95,87,63,30.06,29.96,13,5,21,0.00
2013-7-9,92.0,81.3,74.6,79.0,75.3,73.0,94,82,61,30.00,29.87,12,5,17,0.00
2013-7-10,84.4,75.7,67.3,78.0,66.9,-99.9,98,84,64,30.00,29.80,23,-3,26,0.43
2013-7-11,80.6,69.0,58.7,65.0,60.1,56.0,95,76,49,30.06,29.96,13,5,16,0.00
2013-7-12,83.3,69.4,52.8,65.0,58.8,51.0,94,72,42,30.12,30.04,9,3,11,0.00
2013-7-13,83.6,72.9,58.3,67.0,63.1,57.0,95,73,51,30.12,30.04,11,4,15,0.00
2013-7-14,91.3,79.0,65.4,75.0,69.5,63.0,93,74,50,30.15,30.08,8,4,11,0.00
2013-7-15,90.3,80.1,71.2,76.0,73.0,69.0,94,80,59,30.23,30.14,11,3,14,0.00
2013-7-16,93.6,81.9,70.3,76.0,72.6,69.0,96,76,48,30.30,30.22,10,2,11,0.00
2013-7-17,94.9,83.3,69.1,78.0,73.4,68.0,99,74,50,30.30,30.15,5,1,11,0.00
2013-7-18,93.3,82.9,71.6,79.0,74.9,70.0,97,78,55,30.17,29.97,10,3,12,0.00
2013-7-19,93.1,83.7,74.5,78.0,75.1,72.0,94,77,57,29.97,29.80,16,6,21,0.00
2013-7-20,88.9,79.0,69.7,76.0,72.5,67.0,96,81,54,29.90,29.78,13,4,19,0.39
2013-7-21,79.2,73.0,66.6,73.0,70.2,66.0,99,91,78,29.93,29.83,5,2,10,0.00
2013-7-22,87.2,76.2,67.7,73.0,69.7,67.0,98,82,54,29.85,29.74,14,4,14,0.22
2013-7-23,82.7,73.8,62.8,72.0,67.0,57.0,96,80,60,29.92,29.73,19,8,28,0.10
2013-7-24,75.6,64.6,54.1,57.0,53.8,52.0,92,70,44,30.03,29.91,15,6,18,0.00
2013-7-25,81.8,67.0,49.9,61.0,54.9,49.0,95,69,39,30.11,30.02,6,2,9,0.00
2013-7-26,76.4,67.0,58.4,68.0,62.3,56.0,95,85,59,30.05,29.88,12,4,16,0.02
2013-7-27,71.9,63.3,51.0,66.0,55.6,48.0,95,78,47,29.95,29.87,20,8,26,0.00
2013-7-28,72.6,61.6,48.3,57.0,51.6,47.0,94,72,48,30.04,29.93,20,8,29,0.00
2013-7-29,79.5,65.1,49.6,63.0,54.8,49.0,98,73,39,30.15,30.04,8,2,12,0.00
2013-7-30,70.5,65.7,59.1,68.0,63.5,57.0,98,92,85,30.16,30.04,9,3,14,0.33
2013-7-31,75.3,69.8,63.6,72.0,68.2,63.0,99,94,84,30.04,29.94,13,4,18,0.01
2013-8-1,81.1,69.3,60.1,69.0,60.8,56.0,99,78,46,30.01,29.94,18,6,30,0.00
2013-8-2,82.3,72.0,61.0,72.0,66.4,58.0,96,83,66,29.96,29.88,19,6,23,0.02
2013-8-3,81.7,72.6,60.4,70.0,64.9,58.0,98,79,50,30.08,29.91,13,5,16,0.15
2013-8-4,82.3,68.8,54.9,62.0,57.9,54.0,95,72,43,30.16,30.07,8,2,10,0.00
2013-8-5,79.0,70.0,58.4,65.0,61.4,56.0,94,76,52,30.09,29.88,11,3,15,0.00
2013-8-6,84.8,73.8,66.8,73.0,68.9,65.0,96,85,64,29.90,29.83,9,3,12,0.00
2013-8-7,81.7,74.4,68.3,75.0,71.9,68.0,98,92,79,29.88,29.80,9,3,14,0.00
2013-8-8,79.0,72.3,66.2,72.0,68.5,61.0,99,88,78,29.94,29.86,12,5,14,0.00
2013-8-9,84.7,71.7,59.7,68.0,62.1,57.0,95,74,41,30.03,29.93,8,3,13,0.00
2013-8-10,84.4,73.4,61.7,69.0,63.9,59.0,97,75,45,30.09,30.03,11,4,15,0.00
2013-8-11,84.3,70.7,55.0,66.0,60.4,54.0,96,73,44,30.11,30.04,10,3,14,0.00
2013-8-12,84.5,73.1,62.0,72.0,66.4,60.0,96,81,53,30.05,29.85,9,3,12,0.00
2013-8-13,75.6,66.6,51.3,66.0,58.5,49.0,98,78,48,30.12,29.87,16,7,22,0.00
2013-8-14,72.4,58.2,46.3,55.0,50.3,45.0,95,77,48,30.21,30.12,9,2,12,0.00
2013-8-15,75.6,62.3,48.1,57.0,52.1,46.0,95,73,40,30.18,30.09,9,2,14,0.00
2013-8-16,78.3,67.8,57.3,59.0,56.0,53.0,92,69,41,30.15,30.10,9,3,13,0.00
2013-8-17,81.5,67.5,54.9,60.0,56.3,53.0,95,71,40,30.20,30.12,10,4,18,0.00
2013-8-18,85.7,70.6,56.0,67.0,60.7,54.0,94,73,45,30.17,30.07,7,2,11,0.00
2013-8-19,86.8,72.4,56.5,68.0,63.1,55.0,97,75,48,30.12,30.03,6,1,10,0.00
2013-8-20,87.3,74.4,61.2,71.0,65.4,60.0,96,76,52,30.11,30.03,7,2,11,0.00
2013-8-21,88.7,75.6,62.3,72.0,67.3,61.0,98,78,50,30.10,29.99,11,3,13,0.00
2013-8-22,83.8,73.8,67.8,71.0,67.8,66.0,94,82,59,30.09,29.98,18,5,31,0.00
2013-8-23,84.8,72.5,62.9,69.0,65.2,61.0,99,80,50,30.12,30.05,12,4,16,0.00
2013-8-24,87.6,73.7,59.8,66.0,62.1,58.0,94,70,40,30.22,30.12,9,3,13,0.00
2013-8-25,89.3,74.1,59.4,67.0,61.5,56.0,91,68,40,30.26,30.16,11,3,13,0.00
2013-8-26,90.9,76.8,62.5,75.0,67.9,60.0,95,76,50,30.19,30.02,11,4,15,0.00
2013-8-27,91.8,80.0,69.0,76.0,71.9,67.0,96,78,51,30.03,29.91,15,6,20,0.00
2013-8-28,93.6,80.9,71.7,78.0,71.8,67.0,93,75,56,29.98,29.88,14,8,21,0.00
2013-8-29,89.1,76.6,68.2,74.0,71.2,67.0,97,84,55,30.04,29.95,8,3,12,0.00
2013-8-30,96.0,78.8,62.8,79.0,70.4,61.0,98,78,48,29.95,29.77,24,5,27,0.15
2013-8-31,97.1,75.5,65.6,79.0,69.8,64.0,98,84,49,29.80,29.66,30,4,63,0.84
2013-9-1,82.4,72.5,65.4,74.0,70.1,65.0,99,92,72,29.79,29.72,9,3,13,0.00
2013-9-2,83.3,72.4,63.0,71.0,64.6,61.0,97,79,49,29.94,29.76,14,6,17,0.00
2013-9-3,78.3,65.5,52.9,61.0,57.4,52.0,99,78,48,30.08,29.94,11,3,15,0.00
2013-9-4,84.5,67.7,51.3,64.0,58.1,51.0,98,75,39,30.15,30.05,9,3,13,0.00
2013-9-5,88.3,71.9,56.2,69.0,61.9,55.0,97,74,46,30.18,30.11,8,3,13,0.00
2013-9-6,87.4,72.6,59.6,69.0,63.1,57.0,91,74,49,30.18,30.01,9,3,11,0.00
2013-9-7,89.1,75.1,61.4,69.0,65.1,60.0,96,74,44,30.02,29.89,16,4,20,0.00
2013-9-8,87.5,74.9,67.6,73.0,69.0,66.0,94,83,55,29.95,29.88,5,2,10,0.12
2013-9-9,95.5,80.0,67.2,76.0,71.2,67.0,99,77,44,29.92,29.84,13,5,19,0.00
2013-9-10,97.6,82.4,69.1,74.0,69.4,63.0,97,69,32,30.04,29.92,15,4,20,0.00
2013-9-11,95.5,78.5,69.0,72.0,63.2,-99.9,96,67,33,30.07,29.97,19,-5,27,0.00
2013-9-12,84.6,72.5,59.0,70.0,63.3,49.0,98,76,31,30.02,29.89,25,7,32,0.19
2013-9-13,70.8,60.2,47.6,58.0,51.0,45.0,98,75,44,30.13,30.02,17,7,25,0.00
2013-9-14,73.8,57.4,43.6,48.0,42.1,32.0,95,64,22,30.18,30.05,10,2,11,0.00
2013-9-15,77.0,61.0,46.6,62.0,51.6,43.0,96,75,39,30.09,29.97,14,4,21,0.03
2013-9-16,67.8,60.1,50.6,59.0,54.6,49.0,96,83,60,30.29,30.09,16,7,19,0.00
2013-9-17,74.8,60.8,48.1,56.0,52.1,47.0,96,76,44,30.29,30.10,11,4,14,0.01
2013-9-18,85.2,71.5,60.0,69.0,62.8,56.0,93,75,53,30.10,29.94,15,4,18,0.00
2013-9-19,93.8,79.2,69.8,73.0,70.1,68.0,97,76,44,29.97,29.81,17,5,27,0.01
2013-9-20,76.7,69.4,57.9,72.0,65.4,53.0,97,87,75,29.86,29.78,15,7,20,0.49
2013-9-21,71.0,59.4,49.8,54.0,50.2,46.0,95,75,43,29.93,29.81,20,7,24,0.00
2013-9-22,73.2,57.6,43.2,51.0,47.4,42.0,97,73,41,30.03,29.93,10,3,15,0.00
2013-9-23,75.2,59.1,44.6,50.0,46.7,43.0,95,68,35,30.08,29.99,9,4,17,0.00
2013-9-24,79.7,61.1,46.0,58.0,48.6,-99.9,94,69,46,30.02,29.86,11,-17,15,0.00
2013-9-25,81.2,66.7,55.4,60.0,54.7,50.0,84,67,44,29.91,29.84,10,4,17,0.00
2013-9-26,83.3,66.0,51.3,56.0,49.4,43.0,92,61,26,30.05,29.91,8,3,11,0.00
2013-9-27,83.6,66.5,50.0,57.0,51.1,47.0,93,62,31,30.14,30.03,14,3,20,0.00
2013-9-28,85.0,69.5,50.6,61.0,54.8,49.0,94,63,36,30.08,29.93,17,6,26,0.00
2013-9-29,73.2,63.3,51.2,62.0,49.8,-99.9,95,69,40,30.01,29.93,13,-4,24,0.07
2013-9-30,78.3,61.6,45.9,60.0,54.0,45.0,99,79,45,30.00,29.88,13,3,18,0.01
2013-10-1,81.7,69.3,60.3,67.0,63.5,59.0,98,83,57,30.01,29.92,17,6,19,0.00
2013-10-2,74.8,67.8,61.3,69.0,62.9,-99.9,99,91,82,30.06,29.96,8,-8,11,0.01
2013-10-3,85.2,72.8,64.9,71.0,66.9,64.0,99,84,55,29.98,29.85,14,6,29,0.45
2013-10-4,87.9,74.4,63.9,71.0,67.0,62.0,96,80,50,29.97,29.89,12,5,19,0.45
2013-10-5,82.7,70.3,66.1,72.0,68.2,65.0,99,93,68,29.94,29.77,19,5,24,0.38
2013-10-6,67.3,55.7,47.1,67.0,47.6,38.0,99,76,41,29.82,29.71,26,9,34,0.08
2013-10-7,68.3,54.0,42.9,50.0,45.9,42.0,97,77,43,30.11,29.80,21,8,24,0.10
2013-10-8,77.3,59.1,43.6,52.0,46.7,42.0,95,69,33,30.22,30.12,9,3,14,0.00
2013-10-9,74.4,58.4,42.7,50.0,45.6,41.0,95,67,34,30.21,30.11,9,3,13,0.00
2013-10-10,78.3,62.7,48.2,59.0,52.7,45.0,95,73,43,30.16,30.03,7,2,11,0.00
2013-10-11,78.7,64.3,53.0,58.0,54.1,51.0,94,73,43,30.06,29.94,12,3,17,0.00
2013-10-12,76.0,63.4,53.4,64.0,56.1,45.0,93,78,60,30.16,29.97,16,5,21,0.00
2013-10-13,69.6,54.6,41.2,45.0,38.1,29.0,92,60,23,30.37,30.17,14,5,20,0.00
2013-10-14,69.0,52.6,36.8,46.0,39.5,35.0,94,66,32,30.37,30.12,11,3,13,0.00
2013-10-15,64.7,59.0,51.3,63.0,55.0,44.0,97,87,72,30.10,29.83,15,6,19,0.06
2013-10-16,56.7,49.4,40.3,53.0,44.3,39.0,96,83,64,29.98,29.89,20,8,23,0.06
2013-10-17,59.6,48.8,42.0,47.0,42.6,38.0,96,81,45,29.97,29.87,21,6,26,0.04
2013-10-18,54.2,46.5,41.0,46.0,41.3,38.0,93,82,63,30.00,29.90,17,6,22,0.04
2013-10-19,56.0,47.2,40.7,42.0,38.5,34.0,96,74,43,29.96,29.87,27,10,33,0.13
2013-10-20,68.6,53.4,37.4,45.0,40.5,34.0,90,64,37,29.93,29.81,25,9,31,0.13
2013-10-21,53.7,46.2,32.0,46.0,37.6,25.0,88,73,49,30.03,29.86,20,9,25,0.00
2013-10-22,48.1,35.6,26.0,41.0,30.9,-99.9,97,87,59,30.04,29.85,18,5,26,0.49
2013-10-23,44.6,38.5,32.9,36.0,33.6,29.0,96,83,58,30.09,29.91,17,10,22,0.49
2013-10-24,42.1,37.5,29.6,35.0,30.2,26.0,94,76,57,30.35,30.07,19,10,24,0.01
2013-10-25,51.5,37.7,24.1,33.0,27.9,22.0,92,70,41,30.48,30.19,17,7,24,0.01
2013-10-26,58.6,44.2,32.9,40.0,32.5,28.0,86,65,39,30.19,29.93,29,12,35,0.00
2013-10-27,57.6,41.4,27.7,37.0,29.6,26.0,94,67,35,30.12,30.03,15,4,20,0.00
2013-10-28,63.8,45.6,27.5,40.0,31.6,25.0,91,63,29,30.31,30.08,9,2,13,0.00
2013-10-29,56.7,47.0,36.2,50.0,42.7,34.0,97,86,67,30.32,30.13,9,4,14,0.05
2013-10-30,65.8,58.4,50.2,64.0,57.6,49.0,99,97,93,30.13,29.84,18,5,26,0.03
2013-10-31,64.7,59.9,48.4,63.0,58.9,47.0,98,96,92,29.83,29.29,28,12,33,0.87
2013-11-1,53.2,47.8,40.3,47.0,44.6,39.0,96,88,72,29.79,29.50,23,12,38,0.87
2013-11-2,47.7,42.3,34.6,43.0,39.3,33.0,97,89,71,30.16,29.78,21,8,25,0.00
2013-11-3,54.5,40.9,29.4,41.0,34.5,29.0,98,80,48,30.33,30.15,8,3,13,0.00
2013-11-4,58.1,48.9,40.4,45.0,41.2,36.0,87,76,55,30.28,30.17,19,7,26,0.00
2013-11-5,57.6,53.4,49.7,51.0,48.2,45.0,94,82,72,30.31,30.02,15,6,23,0.00
2013-11-6,57.7,48.5,35.7,54.0,46.1,32.0,96,91,74,30.19,29.89,21,12,35,0.19
2013-11-7,48.9,37.0,29.6,38.0,32.0,27.0,94,83,63,30.32,30.19,25,9,31,0.19
2013-11-8,51.0,39.6,27.5,35.0,31.6,26.0,95,75,48,30.38,30.08,15,6,23,0.00
2013-11-9,63.4,49.1,40.0,44.0,38.3,34.0,85,68,41,30.18,29.98,28,14,37,0.00
2013-11-10,49.9,39.5,31.7,37.0,31.9,28.0,88,75,51,30.39,30.18,18,7,22,0.00
2013-11-11,51.7,40.0,28.0,44.0,35.0,23.0,96,83,66,30.46,30.11,35,14,37,0.00
2013-11-12,31.4,25.2,19.5,25.0,20.5,16.0,90,82,69,30.73,30.47,23,12,28,0.00
2013-11-13,39.3,28.0,16.8,25.0,21.1,14.0,91,77,55,30.69,30.30,20,8,23,0.00
2013-11-14,53.1,38.5,26.8,29.0,25.8,22.0,83,63,35,30.30,30.05,24,9,28,0.00
2013-11-15,52.8,44.3,37.3,39.0,33.6,29.0,92,67,48,30.07,29.98,17,8,20,0.00
2013-11-16,62.8,54.2,41.3,59.0,51.1,39.0,97,89,73,29.99,29.65,26,13,32,0.01
2013-11-17,70.1,58.1,41.5,65.0,51.1,-99.9,95,84,68,29.85,29.23,41,7,65,0.01
2013-11-18,49.4,40.9,29.4,40.0,33.2,26.0,91,75,44,30.27,29.85,33,16,41,0.01
2013-11-19,42.6,32.7,23.5,30.0,27.1,22.0,95,81,59,30.39,30.27,12,5,14,0.00
2013-11-20,43.6,36.8,26.6,40.0,32.0,24.0,93,83,66,30.30,30.12,14,6,21,0.01
2013-11-21,48.0,46.4,43.2,48.0,44.3,39.0,99,92,84,30.19,30.13,14,5,17,0.39
2013-11-22,47.2,38.9,29.6,47.0,37.3,28.0,99,94,86,30.50,30.17,25,12,29,0.01
2013-11-23,29.6,23.5,14.8,28.0,17.8,10.0,94,79,65,30.73,30.47,30,16,37,0.01
2013-11-24,28.2,18.5,10.4,13.0,9.5,5.0,86,70,40,30.79,30.50,14,6,17,0.00
2013-11-25,32.7,28.3,19.6,26.0,20.7,14.0,85,73,63,30.49,30.18,17,9,23,0.00
2013-11-26,37.3,30.4,20.3,30.0,24.7,11.0,89,80,68,30.18,30.02,31,12,37,0.00
2013-11-27,27.5,19.0,13.3,13.0,10.0,7.0,85,69,49,30.34,30.15,25,14,31,0.00
2013-11-28,39.0,26.0,15.8,22.0,17.0,12.0,86,71,48,30.52,30.24,24,9,29,0.00
2013-11-29,38.4,25.5,12.9,24.0,18.6,10.0,92,76,52,30.66,30.45,10,4,14,0.00
2013-11-30,51.6,36.5,22.9,32.0,27.5,20.0,91,72,45,30.44,30.11,16,7,22,0.00
2013-12-1,48.7,36.5,26.8,36.0,31.0,25.0,96,82,59,30.11,29.97,10,4,13,0.00
2013-12-2,45.4,38.2,31.0,39.0,35.1,29.0,96,89,74,29.97,29.73,10,5,14,0.02
2013-12-3,51.9,45.1,35.6,50.0,44.0,35.0,98,96,91,29.75,29.69,12,6,19,0.02
2013-12-4,60.6,51.3,39.8,58.0,50.3,40.0,99,96,89,29.76,29.52,26,9,30,0.01
2013-12-5,44.3,28.6,22.3,42.0,23.3,15.0,91,80,71,30.28,29.77,25,16,29,0.01
2013-12-6,22.3,19.5,12.8,16.0,13.4,8.0,83,77,69,30.57,30.26,22,14,24,0.00
2013-12-7,23.9,14.9,7.5,12.0,7.2,4.0,85,73,47,30.73,30.57,19,9,21,0.00
2013-12-8,27.1,23.2,16.3,26.0,20.3,12.0,96,88,80,30.57,30.02,21,9,23,0.00
2013-12-9,25.8,20.8,9.8,24.0,16.1,5.0,93,82,70,30.29,30.03,27,14,29,0.00
2013-12-10,26.5,14.1,2.2,17.0,8.3,-2.0,89,78,63,30.37,30.17,32,10,40,0.00
2013-12-11,24.2,15.2,2.3,20.0,10.5,-3.0,89,82,68,30.66,30.32,27,10,29,0.00
2013-12-12,25.0,12.1,-2.0,17.0,6.0,-6.0,86,76,66,30.65,30.30,17,7,24,0.00
2013-12-13,38.2,25.1,11.7,31.0,21.0,8.0,98,85,65,30.30,30.08,11,6,18,0.00
2013-12-14,33.2,30.1,23.3,33.0,29.1,21.0,98,96,90,30.07,29.84,24,11,28,0.07
2013-12-15,23.2,18.2,11.0,21.0,15.4,8.0,93,88,83,30.16,30.04,25,12,29,0.07
2013-12-16,23.1,19.0,14.6,22.0,17.4,13.0,97,93,89,30.16,30.05,15,5,17,0.00
2013-12-17,27.9,21.8,17.7,27.0,20.1,14.0,96,93,82,30.21,30.07,21,10,24,0.00
2013-12-18,35.5,22.8,7.6,30.0,17.8,5.0,88,81,74,30.27,29.95,25,10,26,0.00
2013-12-19,41.0,37.7,32.3,40.0,35.6,29.0,97,92,85,29.97,29.81,16,7,21,0.08
2013-12-20,56.4,43.6,33.2,56.0,43.1,33.0,99,98,94,29.83,29.70,19,7,25,0.04
2013-12-21,35.5,33.4,31.8,35.0,32.9,31.0,99,98,97,29.85,29.50,20,9,23,0.56
2013-12-22,35.5,32.7,25.9,34.0,31.4,23.0,99,95,90,30.19,29.56,23,13,30,0.57
2013-12-23,26.1,18.5,4.7,24.0,14.7,0.0,92,85,76,30.55,30.20,24,16,30,0.00
2013-12-24,19.3,11.3,3.5,14.0,6.1,-1.0,85,80,72,30.65,30.43,17,8,22,0.00
2013-12-25,30.6,26.4,19.5,29.0,21.9,14.0,94,83,74,30.43,30.20,26,11,30,0.00
2013-12-26,36.2,29.0,17.2,29.0,24.1,15.0,91,82,68,30.39,30.21,18,8,25,0.00
2013-12-27,46.4,34.6,23.5,36.0,30.2,21.0,93,84,66,30.37,30.20,13,7,18,0.00
2013-12-28,52.5,39.4,32.7,41.0,33.9,30.0,89,81,59,30.20,29.92,17,7,21,0.00
2013-12-29,36.1,29.6,15.9,32.0,27.1,13.0,96,90,85,30.21,29.82,26,14,30,0.00
2013-12-30,19.0,13.9,7.6,13.0,8.3,4.0,88,78,68,30.38,30.22,20,8,25,0.00
2013-12-31,28.9,21.5,12.9,22.0,15.8,10.0,88,79,62,30.44,30.23,16,8,22,0.00
2014-1-1,30.3,23.5,17.7,26.0,20.6,16.0,94,88,82,30.25,30.10,18,9,23,0.00
2014-1-2,19.3,13.5,0.7,17.0,11.0,-3.0,92,89,83,30.47,30.07,27,16,30,0.00